Kansas City, MO

11:16 AM CDT on May 29, 2015 (GMT -0500)
Midtown Hospital Hill | | Change Station
CLOSE
Current Station
Personal Weather Station
Location: Kansas City, MO
Elevation: 984 ft
Nearby Weather Stations
Active Advisory: Flood Warning

Elev 984 ft 39.08 °N, 94.58 °W | Updated 12 minutes ago

Partly Cloudy
Partly Cloudy
70.2 °F
Feels Like 71 °F
N
2.2
Wind Variable Wind from South

Today
High -- | Low -- °F
--% Chance of Precip.
Yesterday
High -- | Low -- °F
Precip. -- in
5:55 AM 8:36 PM
Waxing Gibbous, 84% visible
Pressure 29.97 in
Visibility 10.0 miles
Clouds Few 11000 ft
Heat Index 71 °F
Dew Point 63 °F
Humidity 79%
Rainfall 0.19 in
Snow Depth Not available.
UV 8 out of 12
Pollen .90 out of 12
Air Quality Not available.
Flu Activity Sporadic
METAR KMKC 291554Z 21008KT 10SM FEW110 22/17 A2998 RMK AO2 RAB08E43 SLP147 P0000 T02170172

More Conditions Fewer Conditions

Pressure 29.97 in
Visibility 10.0 miles
Clouds Few 11000 ft
Heat Index 71 °F
Dew Point 63 °F
Humidity 79%
Rainfall 0.19 in
Snow Depth Not available.
UV 8 out of 12
Pollen .90 out of 12
Air Quality Not available.
Flu Activity Sporadic
METAR KMKC 291554Z 21008KT 10SM FEW110 22/17 A2998 RMK AO2 RAB08E43 SLP147 P0000 T02170172

More Conditions Fewer Conditions

10-Day Weather Forecast

Almanac

Astronomy

May. 29, 2015 Rise Set
Actual Time
Civil Twilight
Nautical Twilight
Astronomical Twilight
Moon
Length of Visible Light
Length of Day
Tomorrow will be .
, % of the Moon is Illuminated

Today's Extremes

State Highs State Lows

Community

WunderPhotos

Upload Photos

1,825,300 photos uploaded!

WunderBlogs® & News

Nearby

Air Quality

  Air Quality AQ Index Pollutant
Not available.

Snow Depth

Station Depth Elevation

Earthquake Activity

City Distance Mag. Time & Date
Minimum magnitude displayed is 2.5.

Coastal Water Temperatures

Place Temperature

Stations

Nearby Weather Stations

Station Location Temp. Windchill Dew Point Humidity Wind Precip. Elev Updated Type
                   
Flood Warning
Statement as of 10:14 AM CDT on May 29, 2015

The Flood Warning continues for
the Missouri River at Napoleon.
* Until late Monday night.
* At 10:00 am Friday the stage was 17.9 feet.
* Flood stage is 17.0 feet.
* Minor flooding is occurring and minor flooding is forecast.
* Forecast... the river will continue rising to near 18.1 feet by
Saturday evening. The river will fall below flood stage early
Monday morning.
* At 17.0 feet... low-lying areas unprotected by levees begin to
flood.

                       Latest
location fs stage day/time forecast

Missouri River
Napoleon 17 17.9 Fri 10 am 18.1 Saturday evening


lat... Lon 3916 9415 3922 9417 3925 9386 3918 9384 3911 9405